sensor_id;sensor_type;location;lat;lon;timestamp;temperature;humidity
10089;DHT22;51898;49.864;8.550;2022-09-19T00:00:22;7.70;99.90
10089;DHT22;51898;49.864;8.550;2022-09-19T00:03:24;7.80;99.90
10089;DHT22;51898;49.864;8.550;2022-09-19T00:06:27;7.80;99.90
10089;DHT22;51898;49.864;8.550;2022-09-19T00:09:32;7.80;99.90
10089;DHT22;51898;49.864;8.550;2022-09-19T00:12:34;7.80;99.90
10089;DHT22;51898;49.864;8.550;2022-09-19T00:15:45;7.90;99.90
10089;DHT22;51898;49.864;8.550;2022-09-19T00:18:47;8.00;99.90
10089;DHT22;51898;49.864;8.550;2022-09-19T00:21:53;8.00;99.90
10089;DHT22;51898;49.864;8.550;2022-09-19T00:24:56;8.10;99.90
10089;DHT22;51898;49.864;8.550;2022-09-19T00:27:57;8.10;99.90
10089;DHT22;51898;49.864;8.550;2022-09-19T00:30:59;8.10;99.90
10089;DHT22;51898;49.864;8.550;2022-09-19T00:34:02;8.10;99.90
10089;DHT22;51898;49.864;8.550;2022-09-19T00:37:10;8.00;99.90
10089;DHT22;51898;49.864;8.550;2022-09-19T00:40:12;8.00;99.90
10089;DHT22;51898;49.864;8.550;2022-09-19T00:43:15;8.00;99.90
10089;DHT22;51898;49.864;8.550;2022-09-19T00:46:20;8.00;99.90
10089;DHT22;51898;49.864;8.550;2022-09-19T00:49:24;8.00;99.90
10089;DHT22;51898;49.864;8.550;2022-09-19T00:52:51;8.00;99.90
10089;DHT22;51898;49.864;8.550;2022-09-19T00:55:54;8.00;99.90
10089;DHT22;51898;49.864;8.550;2022-09-19T00:58:57;8.00;99.90
10089;DHT22;51898;49.864;8.550;2022-09-19T01:02:00;8.00;99.90
10089;DHT22;51898;49.864;8.550;2022-09-19T01:05:06;8.00;99.90
10089;DHT22;51898;49.864;8.550;2022-09-19T01:08:23;8.10;99.90
10089;DHT22;51898;49.864;8.550;2022-09-19T01:15:29;8.10;99.90
10089;DHT22;51898;49.864;8.550;2022-09-19T01:18:46;8.20;99.90
10089;DHT22;51898;49.864;8.550;2022-09-19T01:22:06;8.20;99.90
10089;DHT22;51898;49.864;8.550;2022-09-19T01:25:26;8.20;99.90
10089;DHT22;51898;49.864;8.550;2022-09-19T01:28:34;8.30;99.90
10089;DHT22;51898;49.864;8.550;2022-09-19T01:31:43;8.30;99.90
10089;DHT22;51898;49.864;8.550;2022-09-19T01:34:55;8.30;99.90
10089;DHT22;51898;49.864;8.550;2022-09-19T01:41:07;8.30;99.90
10089;DHT22;51898;49.864;8.550;2022-09-19T01:44:16;8.30;99.90
10089;DHT22;51898;49.864;8.550;2022-09-19T01:47:41;8.30;99.90
10089;DHT22;51898;49.864;8.550;2022-09-19T01:51:08;8.40;99.90
10089;DHT22;51898;49.864;8.550;2022-09-19T02:01:03;8.50;99.90
10089;DHT22;51898;49.864;8.550;2022-09-19T02:04:18;8.50;99.90
10089;DHT22;51898;49.864;8.550;2022-09-19T02:07:28;8.60;99.90
10089;DHT22;51898;49.864;8.550;2022-09-19T02:10:46;8.60;99.90
10089;DHT22;51898;49.864;8.550;2022-09-19T02:13:53;8.70;99.90
10089;DHT22;51898;49.864;8.550;2022-09-19T02:17:00;8.80;99.90
10089;DHT22;51898;49.864;8.550;2022-09-19T02:20:11;8.80;99.90
10089;DHT22;51898;49.864;8.550;2022-09-19T02:23:20;8.90;99.90
10089;DHT22;51898;49.864;8.550;2022-09-19T02:26:24;9.00;99.90
10089;DHT22;51898;49.864;8.550;2022-09-19T02:29:28;9.00;99.90
10089;DHT22;51898;49.864;8.550;2022-09-19T02:32:32;9.10;99.90
10089;DHT22;51898;49.864;8.550;2022-09-19T02:35:55;9.10;99.90
10089;DHT22;51898;49.864;8.550;2022-09-19T02:45:41;9.20;99.90
10089;DHT22;51898;49.864;8.550;2022-09-19T02:49:19;9.20;99.90
10089;DHT22;51898;49.864;8.550;2022-09-19T02:52:29;9.30;99.90
10089;DHT22;51898;49.864;8.550;2022-09-19T02:55:37;9.30;99.90
10089;DHT22;51898;49.864;8.550;2022-09-19T02:58:58;9.30;99.90
10089;DHT22;51898;49.864;8.550;2022-09-19T03:02:04;9.30;99.90
10089;DHT22;51898;49.864;8.550;2022-09-19T03:05:11;9.40;99.90
10089;DHT22;51898;49.864;8.550;2022-09-19T03:08:15;9.40;99.90
10089;DHT22;51898;49.864;8.550;2022-09-19T03:11:19;9.50;99.90
10089;DHT22;51898;49.864;8.550;2022-09-19T03:14:21;9.50;99.90
10089;DHT22;51898;49.864;8.550;2022-09-19T03:17:45;9.60;99.90
10089;DHT22;51898;49.864;8.550;2022-09-19T03:20:55;9.60;99.90
10089;DHT22;51898;49.864;8.550;2022-09-19T03:24:00;9.60;99.90
10089;DHT22;51898;49.864;8.550;2022-09-19T03:27:02;9.60;99.90
10089;DHT22;51898;49.864;8.550;2022-09-19T03:30:07;9.60;99.90
10089;DHT22;51898;49.864;8.550;2022-09-19T03:33:14;9.60;99.90
10089;DHT22;51898;49.864;8.550;2022-09-19T03:36:18;9.60;99.90
10089;DHT22;51898;49.864;8.550;2022-09-19T03:39:19;9.60;99.90
10089;DHT22;51898;49.864;8.550;2022-09-19T03:42:22;9.70;99.90
10089;DHT22;51898;49.864;8.550;2022-09-19T03:45:24;9.70;99.90
10089;DHT22;51898;49.864;8.550;2022-09-19T03:48:25;9.70;99.90
10089;DHT22;51898;49.864;8.550;2022-09-19T03:51:28;9.70;99.90
10089;DHT22;51898;49.864;8.550;2022-09-19T03:54:34;9.70;99.90
10089;DHT22;51898;49.864;8.550;2022-09-19T03:57:37;9.70;99.90
10089;DHT22;51898;49.864;8.550;2022-09-19T04:00:39;9.70;99.90
10089;DHT22;51898;49.864;8.550;2022-09-19T04:03:41;9.70;99.90
10089;DHT22;51898;49.864;8.550;2022-09-19T04:06:54;9.70;99.90
10089;DHT22;51898;49.864;8.550;2022-09-19T04:09:57;9.70;99.90
10089;DHT22;51898;49.864;8.550;2022-09-19T04:12:59;9.70;99.90
10089;DHT22;51898;49.864;8.550;2022-09-19T04:16:01;9.60;99.90
10089;DHT22;51898;49.864;8.550;2022-09-19T04:19:02;9.60;99.90
10089;DHT22;51898;49.864;8.550;2022-09-19T04:22:10;9.60;99.90
10089;DHT22;51898;49.864;8.550;2022-09-19T04:25:12;9.60;99.90
10089;DHT22;51898;49.864;8.550;2022-09-19T04:28:15;9.60;99.90
10089;DHT22;51898;49.864;8.550;2022-09-19T04:31:18;9.60;99.90
10089;DHT22;51898;49.864;8.550;2022-09-19T04:34:20;9.60;99.90
10089;DHT22;51898;49.864;8.550;2022-09-19T04:37:22;9.60;99.90
10089;DHT22;51898;49.864;8.550;2022-09-19T04:40:23;9.70;99.90
10089;DHT22;51898;49.864;8.550;2022-09-19T04:43:26;9.70;99.90
10089;DHT22;51898;49.864;8.550;2022-09-19T04:46:31;9.70;99.90
10089;DHT22;51898;49.864;8.550;2022-09-19T04:49:33;9.70;99.90
10089;DHT22;51898;49.864;8.550;2022-09-19T04:52:41;9.70;99.90
10089;DHT22;51898;49.864;8.550;2022-09-19T04:55:43;9.80;99.90
10089;DHT22;51898;49.864;8.550;2022-09-19T04:58:47;9.70;99.90
10089;DHT22;51898;49.864;8.550;2022-09-19T05:01:49;9.80;99.90
10089;DHT22;51898;49.864;8.550;2022-09-19T09:09:03;13.70;99.90
10089;DHT22;51898;49.864;8.550;2022-09-19T09:12:45;13.90;99.90
10089;DHT22;51898;49.864;8.550;2022-09-19T09:19:25;13.80;99.90
10089;DHT22;51898;49.864;8.550;2022-09-19T09:22:39;13.80;99.90
10089;DHT22;51898;49.864;8.550;2022-09-19T09:25:49;14.00;99.90
10089;DHT22;51898;49.864;8.550;2022-09-19T09:32:23;14.30;99.90
10089;DHT22;51898;49.864;8.550;2022-09-19T09:35:38;14.40;99.90
10089;DHT22;51898;49.864;8.550;2022-09-19T09:39:00;14.30;99.90
10089;DHT22;51898;49.864;8.550;2022-09-19T09:42:07;14.60;99.90
10089;DHT22;51898;49.864;8.550;2022-09-19T09:45:42;14.90;99.90
10089;DHT22;51898;49.864;8.550;2022-09-19T09:48:47;14.90;99.90
10089;DHT22;51898;49.864;8.550;2022-09-19T09:52:22;15.20;99.90
10089;DHT22;51898;49.864;8.550;2022-09-19T09:55:41;15.40;99.90
10089;DHT22;51898;49.864;8.550;2022-09-19T10:03:22;15.40;99.90
10089;DHT22;51898;49.864;8.550;2022-09-19T10:07:17;15.30;99.90
10089;DHT22;51898;49.864;8.550;2022-09-19T10:10:22;15.20;99.90
10089;DHT22;51898;49.864;8.550;2022-09-19T10:13:26;15.30;99.90
10089;DHT22;51898;49.864;8.550;2022-09-19T10:16:31;15.20;99.90
10089;DHT22;51898;49.864;8.550;2022-09-19T10:19:39;15.20;99.90
10089;DHT22;51898;49.864;8.550;2022-09-19T10:22:41;15.00;99.90
10089;DHT22;51898;49.864;8.550;2022-09-19T10:25:44;15.20;99.90
10089;DHT22;51898;49.864;8.550;2022-09-19T10:28:52;15.30;99.90
10089;DHT22;51898;49.864;8.550;2022-09-19T10:31:56;15.50;99.90
10089;DHT22;51898;49.864;8.550;2022-09-19T10:34:59;15.40;99.90
10089;DHT22;51898;49.864;8.550;2022-09-19T10:38:21;15.40;99.90
10089;DHT22;51898;49.864;8.550;2022-09-19T10:41:24;15.40;99.90
10089;DHT22;51898;49.864;8.550;2022-09-19T10:44:28;15.50;99.90
10089;DHT22;51898;49.864;8.550;2022-09-19T10:47:34;15.70;99.90
10089;DHT22;51898;49.864;8.550;2022-09-19T10:50:43;15.70;99.90
10089;DHT22;51898;49.864;8.550;2022-09-19T10:53:47;15.80;99.90
10089;DHT22;51898;49.864;8.550;2022-09-19T10:56:54;15.70;99.90
10089;DHT22;51898;49.864;8.550;2022-09-19T11:00:00;15.70;99.90
10089;DHT22;51898;49.864;8.550;2022-09-19T11:03:18;15.70;99.90
10089;DHT22;51898;49.864;8.550;2022-09-19T11:06:28;16.00;99.90
10089;DHT22;51898;49.864;8.550;2022-09-19T11:09:36;16.10;99.90
10089;DHT22;51898;49.864;8.550;2022-09-19T11:12:38;16.00;99.90
10089;DHT22;51898;49.864;8.550;2022-09-19T11:16:14;15.80;99.90
10089;DHT22;51898;49.864;8.550;2022-09-19T11:30:09;16.00;99.90
10089;DHT22;51898;49.864;8.550;2022-09-19T11:33:27;16.20;99.90
10089;DHT22;51898;49.864;8.550;2022-09-19T11:37:04;16.30;99.90
10089;DHT22;51898;49.864;8.550;2022-09-19T11:40:27;16.40;99.90
10089;DHT22;51898;49.864;8.550;2022-09-19T11:43:53;16.70;99.90
10089;DHT22;51898;49.864;8.550;2022-09-19T11:47:29;16.80;99.90
10089;DHT22;51898;49.864;8.550;2022-09-19T11:51:02;17.00;99.90
10089;DHT22;51898;49.864;8.550;2022-09-19T12:00:58;16.90;99.90
10089;DHT22;51898;49.864;8.550;2022-09-19T12:07:37;17.20;99.90
10089;DHT22;51898;49.864;8.550;2022-09-19T12:10:49;17.10;99.90
10089;DHT22;51898;49.864;8.550;2022-09-19T12:13:54;17.00;99.90
10089;DHT22;51898;49.864;8.550;2022-09-19T12:17:04;17.00;99.90
10089;DHT22;51898;49.864;8.550;2022-09-19T12:20:27;17.30;99.90
10089;DHT22;51898;49.864;8.550;2022-09-19T12:23:52;17.60;99.90
10089;DHT22;51898;49.864;8.550;2022-09-19T12:27:19;17.60;99.90
10089;DHT22;51898;49.864;8.550;2022-09-19T12:30:23;17.50;99.90
10089;DHT22;51898;49.864;8.550;2022-09-19T12:33:58;17.70;99.90
10089;DHT22;51898;49.864;8.550;2022-09-19T12:37:39;17.60;99.90
10089;DHT22;51898;49.864;8.550;2022-09-19T12:40:54;17.50;99.90
10089;DHT22;51898;49.864;8.550;2022-09-19T12:50:42;17.80;99.90
10089;DHT22;51898;49.864;8.550;2022-09-19T12:53:48;17.90;99.90
10089;DHT22;51898;49.864;8.550;2022-09-19T12:57:17;18.00;99.90
10089;DHT22;51898;49.864;8.550;2022-09-19T13:00:20;18.20;99.90
10089;DHT22;51898;49.864;8.550;2022-09-19T13:03:26;18.40;99.90
10089;DHT22;51898;49.864;8.550;2022-09-19T13:06:29;18.30;99.90
10089;DHT22;51898;49.864;8.550;2022-09-19T13:09:53;18.00;99.90
10089;DHT22;51898;49.864;8.550;2022-09-19T13:16:14;17.40;99.90
10089;DHT22;51898;49.864;8.550;2022-09-19T13:19:16;17.00;99.90
10089;DHT22;51898;49.864;8.550;2022-09-19T13:22:51;17.00;99.90
10089;DHT22;51898;49.864;8.550;2022-09-19T13:35:51;17.20;99.90
10089;DHT22;51898;49.864;8.550;2022-09-19T13:38:55;17.20;99.90
10089;DHT22;51898;49.864;8.550;2022-09-19T13:42:06;17.10;99.90
10089;DHT22;51898;49.864;8.550;2022-09-19T13:45:25;17.00;99.90
10089;DHT22;51898;49.864;8.550;2022-09-19T13:48:49;17.00;99.90
10089;DHT22;51898;49.864;8.550;2022-09-19T13:51:59;17.00;99.90
10089;DHT22;51898;49.864;8.550;2022-09-19T14:01:19;16.50;99.90
10089;DHT22;51898;49.864;8.550;2022-09-19T14:11:27;16.80;99.90
10089;DHT22;51898;49.864;8.550;2022-09-19T14:17:39;17.00;99.90
10089;DHT22;51898;49.864;8.550;2022-09-19T14:20:51;17.30;99.90
10089;DHT22;51898;49.864;8.550;2022-09-19T14:23:59;17.50;99.90
10089;DHT22;51898;49.864;8.550;2022-09-19T14:27:18;17.70;99.90
10089;DHT22;51898;49.864;8.550;2022-09-19T14:33:53;17.30;99.90
10089;DHT22;51898;49.864;8.550;2022-09-19T14:40:26;17.20;99.90
10089;DHT22;51898;49.864;8.550;2022-09-19T14:47:16;17.70;99.90
10089;DHT22;51898;49.864;8.550;2022-09-19T14:50:22;17.70;99.90
10089;DHT22;51898;49.864;8.550;2022-09-19T14:53:31;17.70;99.90
10089;DHT22;51898;49.864;8.550;2022-09-19T14:56:34;17.50;99.90
10089;DHT22;51898;49.864;8.550;2022-09-19T14:59:36;17.60;99.90
10089;DHT22;51898;49.864;8.550;2022-09-19T15:02:38;17.30;99.90
10089;DHT22;51898;49.864;8.550;2022-09-19T15:05:40;17.20;99.90
10089;DHT22;51898;49.864;8.550;2022-09-19T15:08:48;17.40;99.90
10089;DHT22;51898;49.864;8.550;2022-09-19T15:11:52;17.50;99.90
10089;DHT22;51898;49.864;8.550;2022-09-19T15:14:56;17.60;99.90
10089;DHT22;51898;49.864;8.550;2022-09-19T15:17:58;17.70;99.90
10089;DHT22;51898;49.864;8.550;2022-09-19T15:21:01;17.60;99.90
10089;DHT22;51898;49.864;8.550;2022-09-19T15:24:05;17.60;99.90
10089;DHT22;51898;49.864;8.550;2022-09-19T15:27:10;17.30;99.90
10089;DHT22;51898;49.864;8.550;2022-09-19T15:30:19;16.90;99.90
10089;DHT22;51898;49.864;8.550;2022-09-19T15:33:22;16.60;99.90
10089;DHT22;51898;49.864;8.550;2022-09-19T15:36:24;16.40;99.90
10089;DHT22;51898;49.864;8.550;2022-09-19T15:39:26;16.00;99.90
10089;DHT22;51898;49.864;8.550;2022-09-19T15:42:28;15.70;99.90
10089;DHT22;51898;49.864;8.550;2022-09-19T15:45:38;15.30;99.90
10089;DHT22;51898;49.864;8.550;2022-09-19T15:48:46;15.10;99.90
10089;DHT22;51898;49.864;8.550;2022-09-19T15:51:58;14.90;99.90
10089;DHT22;51898;49.864;8.550;2022-09-19T15:55:02;14.80;99.90
10089;DHT22;51898;49.864;8.550;2022-09-19T15:58:04;14.80;99.90
10089;DHT22;51898;49.864;8.550;2022-09-19T16:01:30;14.80;99.90
10089;DHT22;51898;49.864;8.550;2022-09-19T16:04:36;14.90;99.90
10089;DHT22;51898;49.864;8.550;2022-09-19T16:07:38;14.90;99.90
10089;DHT22;51898;49.864;8.550;2022-09-19T16:10:58;15.10;99.90
10089;DHT22;51898;49.864;8.550;2022-09-19T16:14:26;15.30;99.90
10089;DHT22;51898;49.864;8.550;2022-09-19T16:20:55;15.50;99.90
10089;DHT22;51898;49.864;8.550;2022-09-19T16:24:00;15.50;99.90
10089;DHT22;51898;49.864;8.550;2022-09-19T16:27:02;15.40;99.90
10089;DHT22;51898;49.864;8.550;2022-09-19T16:30:09;15.30;99.90
10089;DHT22;51898;49.864;8.550;2022-09-19T16:33:12;15.20;99.90
10089;DHT22;51898;49.864;8.550;2022-09-19T16:36:15;15.10;99.90
10089;DHT22;51898;49.864;8.550;2022-09-19T16:42:34;14.90;99.90
10089;DHT22;51898;49.864;8.550;2022-09-19T16:45:38;14.60;99.90
10089;DHT22;51898;49.864;8.550;2022-09-19T16:48:42;14.10;99.90
10089;DHT22;51898;49.864;8.550;2022-09-19T16:51:44;13.60;99.90
10089;DHT22;51898;49.864;8.550;2022-09-19T16:54:52;13.40;99.90
10089;DHT22;51898;49.864;8.550;2022-09-19T16:57:59;13.30;99.90
10089;DHT22;51898;49.864;8.550;2022-09-19T17:01:00;13.30;99.90
10089;DHT22;51898;49.864;8.550;2022-09-19T17:04:03;13.20;99.90
10089;DHT22;51898;49.864;8.550;2022-09-19T17:07:07;13.10;99.90
10089;DHT22;51898;49.864;8.550;2022-09-19T17:10:12;13.10;99.90
10089;DHT22;51898;49.864;8.550;2022-09-19T17:13:14;13.10;99.90
10089;DHT22;51898;49.864;8.550;2022-09-19T17:16:15;13.00;99.90
10089;DHT22;51898;49.864;8.550;2022-09-19T17:19:19;13.00;99.90
10089;DHT22;51898;49.864;8.550;2022-09-19T17:22:22;12.90;99.90
10089;DHT22;51898;49.864;8.550;2022-09-19T17:25:44;12.90;99.90
10089;DHT22;51898;49.864;8.550;2022-09-19T17:28:46;12.90;99.90
10089;DHT22;51898;49.864;8.550;2022-09-19T17:31:48;12.90;99.90
10089;DHT22;51898;49.864;8.550;2022-09-19T17:34:50;12.90;99.90
10089;DHT22;51898;49.864;8.550;2022-09-19T17:37:51;12.90;99.90
10089;DHT22;51898;49.864;8.550;2022-09-19T17:40:53;12.90;99.90
10089;DHT22;51898;49.864;8.550;2022-09-19T17:43:55;12.90;99.90
10089;DHT22;51898;49.864;8.550;2022-09-19T17:46:56;12.90;99.90
10089;DHT22;51898;49.864;8.550;2022-09-19T17:49:58;12.90;99.90
10089;DHT22;51898;49.864;8.550;2022-09-19T17:53:00;12.80;99.90
10089;DHT22;51898;49.864;8.550;2022-09-19T17:59:11;12.90;99.90
10089;DHT22;51898;49.864;8.550;2022-09-19T18:02:13;12.80;99.90
10089;DHT22;51898;49.864;8.550;2022-09-19T18:05:33;12.80;99.90
10089;DHT22;51898;49.864;8.550;2022-09-19T18:08:35;12.80;99.90
10089;DHT22;51898;49.864;8.550;2022-09-19T18:11:37;12.80;99.90
10089;DHT22;51898;49.864;8.550;2022-09-19T18:14:38;12.80;99.90
10089;DHT22;51898;49.864;8.550;2022-09-19T18:17:40;12.80;99.90
10089;DHT22;51898;49.864;8.550;2022-09-19T18:20:52;12.80;99.90
10089;DHT22;51898;49.864;8.550;2022-09-19T18:23:54;12.80;99.90
10089;DHT22;51898;49.864;8.550;2022-09-19T18:26:57;12.80;99.90
10089;DHT22;51898;49.864;8.550;2022-09-19T18:29:59;12.80;99.90
10089;DHT22;51898;49.864;8.550;2022-09-19T18:33:01;12.80;99.90
10089;DHT22;51898;49.864;8.550;2022-09-19T18:36:06;12.80;99.90
10089;DHT22;51898;49.864;8.550;2022-09-19T18:39:08;12.80;99.90
10089;DHT22;51898;49.864;8.550;2022-09-19T18:42:12;12.70;99.90
10089;DHT22;51898;49.864;8.550;2022-09-19T18:45:14;12.80;99.90
10089;DHT22;51898;49.864;8.550;2022-09-19T18:48:16;12.80;99.90
10089;DHT22;51898;49.864;8.550;2022-09-19T18:51:20;12.80;99.90
10089;DHT22;51898;49.864;8.550;2022-09-19T18:54:22;12.80;99.90
10089;DHT22;51898;49.864;8.550;2022-09-19T18:57:24;12.80;99.90
10089;DHT22;51898;49.864;8.550;2022-09-19T19:00:25;12.80;99.90
10089;DHT22;51898;49.864;8.550;2022-09-19T19:03:27;12.80;99.90
10089;DHT22;51898;49.864;8.550;2022-09-19T19:06:29;12.80;99.90
10089;DHT22;51898;49.864;8.550;2022-09-19T19:09:31;12.90;99.90
10089;DHT22;51898;49.864;8.550;2022-09-19T19:12:33;12.90;99.90
10089;DHT22;51898;49.864;8.550;2022-09-19T19:15:45;12.90;99.90
10089;DHT22;51898;49.864;8.550;2022-09-19T19:18:48;12.90;99.90
10089;DHT22;51898;49.864;8.550;2022-09-19T19:21:54;12.90;99.90
10089;DHT22;51898;49.864;8.550;2022-09-19T19:24:58;12.90;99.90
10089;DHT22;51898;49.864;8.550;2022-09-19T19:28:00;12.90;99.90
10089;DHT22;51898;49.864;8.550;2022-09-19T19:31:02;12.80;99.90
10089;DHT22;51898;49.864;8.550;2022-09-19T19:34:05;12.80;99.90
10089;DHT22;51898;49.864;8.550;2022-09-19T19:37:08;12.80;99.90
10089;DHT22;51898;49.864;8.550;2022-09-19T19:40:10;12.80;99.90
10089;DHT22;51898;49.864;8.550;2022-09-19T19:43:11;12.80;99.90
10089;DHT22;51898;49.864;8.550;2022-09-19T19:46:18;12.80;99.90
10089;DHT22;51898;49.864;8.550;2022-09-19T19:49:20;12.70;99.90
10089;DHT22;51898;49.864;8.550;2022-09-19T19:52:22;12.70;99.90
10089;DHT22;51898;49.864;8.550;2022-09-19T19:55:24;12.70;99.90
10089;DHT22;51898;49.864;8.550;2022-09-19T19:58:26;12.60;99.90
10089;DHT22;51898;49.864;8.550;2022-09-19T20:01:30;12.50;99.90
10089;DHT22;51898;49.864;8.550;2022-09-19T20:04:32;12.50;99.90
10089;DHT22;51898;49.864;8.550;2022-09-19T20:07:34;12.40;99.90
10089;DHT22;51898;49.864;8.550;2022-09-19T20:10:36;12.40;99.90
10089;DHT22;51898;49.864;8.550;2022-09-19T20:13:39;12.30;99.90
10089;DHT22;51898;49.864;8.550;2022-09-19T20:16:43;12.30;99.90
10089;DHT22;51898;49.864;8.550;2022-09-19T20:19:45;12.20;99.90
10089;DHT22;51898;49.864;8.550;2022-09-19T20:22:47;12.30;99.90
10089;DHT22;51898;49.864;8.550;2022-09-19T20:25:51;12.20;99.90
10089;DHT22;51898;49.864;8.550;2022-09-19T20:28:54;12.20;99.90
10089;DHT22;51898;49.864;8.550;2022-09-19T20:31:56;12.10;99.90
10089;DHT22;51898;49.864;8.550;2022-09-19T20:34:58;12.20;99.90
10089;DHT22;51898;49.864;8.550;2022-09-19T20:38:00;12.20;99.90
10089;DHT22;51898;49.864;8.550;2022-09-19T20:41:03;12.30;99.90
10089;DHT22;51898;49.864;8.550;2022-09-19T20:44:05;12.20;99.90
10089;DHT22;51898;49.864;8.550;2022-09-19T20:47:07;12.20;99.90
10089;DHT22;51898;49.864;8.550;2022-09-19T20:50:09;12.10;99.90
10089;DHT22;51898;49.864;8.550;2022-09-19T20:53:11;12.10;99.90
10089;DHT22;51898;49.864;8.550;2022-09-19T20:56:14;12.00;99.90
10089;DHT22;51898;49.864;8.550;2022-09-19T20:59:18;12.00;99.90
10089;DHT22;51898;49.864;8.550;2022-09-19T21:02:20;11.90;99.90
10089;DHT22;51898;49.864;8.550;2022-09-19T21:05:22;11.80;99.90
10089;DHT22;51898;49.864;8.550;2022-09-19T21:08:25;11.70;99.90
10089;DHT22;51898;49.864;8.550;2022-09-19T21:11:27;11.70;99.90
10089;DHT22;51898;49.864;8.550;2022-09-19T21:14:29;11.70;99.90
10089;DHT22;51898;49.864;8.550;2022-09-19T21:17:31;11.70;99.90
10089;DHT22;51898;49.864;8.550;2022-09-19T21:20:32;11.60;99.90
10089;DHT22;51898;49.864;8.550;2022-09-19T21:23:38;11.60;99.90
10089;DHT22;51898;49.864;8.550;2022-09-19T21:26:40;11.60;99.90
10089;DHT22;51898;49.864;8.550;2022-09-19T21:29:47;11.50;99.90
10089;DHT22;51898;49.864;8.550;2022-09-19T21:32:48;11.60;99.90
10089;DHT22;51898;49.864;8.550;2022-09-19T21:35:50;11.60;99.90
10089;DHT22;51898;49.864;8.550;2022-09-19T21:38:56;11.60;99.90
10089;DHT22;51898;49.864;8.550;2022-09-19T21:41:58;11.60;99.90
10089;DHT22;51898;49.864;8.550;2022-09-19T21:45:00;11.60;99.90
10089;DHT22;51898;49.864;8.550;2022-09-19T21:48:01;11.60;99.90
10089;DHT22;51898;49.864;8.550;2022-09-19T21:51:05;11.60;99.90
10089;DHT22;51898;49.864;8.550;2022-09-19T21:54:07;11.50;99.90
10089;DHT22;51898;49.864;8.550;2022-09-19T21:57:09;11.50;99.90
10089;DHT22;51898;49.864;8.550;2022-09-19T22:00:12;11.50;99.90
10089;DHT22;51898;49.864;8.550;2022-09-19T22:03:16;11.50;99.90
10089;DHT22;51898;49.864;8.550;2022-09-19T22:06:18;11.60;99.90
10089;DHT22;51898;49.864;8.550;2022-09-19T22:09:20;11.50;99.90
10089;DHT22;51898;49.864;8.550;2022-09-19T22:12:22;11.60;99.90
10089;DHT22;51898;49.864;8.550;2022-09-19T22:15:23;11.60;99.90
10089;DHT22;51898;49.864;8.550;2022-09-19T22:18:26;11.60;99.90
10089;DHT22;51898;49.864;8.550;2022-09-19T22:21:28;11.60;99.90
10089;DHT22;51898;49.864;8.550;2022-09-19T22:24:32;11.50;99.90
10089;DHT22;51898;49.864;8.550;2022-09-19T22:27:36;11.50;99.90
10089;DHT22;51898;49.864;8.550;2022-09-19T22:30:38;11.40;99.90
10089;DHT22;51898;49.864;8.550;2022-09-19T22:33:41;11.40;99.90
10089;DHT22;51898;49.864;8.550;2022-09-19T22:36:44;11.30;99.90
10089;DHT22;51898;49.864;8.550;2022-09-19T22:39:45;11.30;99.90
10089;DHT22;51898;49.864;8.550;2022-09-19T22:42:48;11.30;99.90
10089;DHT22;51898;49.864;8.550;2022-09-19T22:45:49;11.30;99.90
10089;DHT22;51898;49.864;8.550;2022-09-19T22:48:52;11.20;99.90
10089;DHT22;51898;49.864;8.550;2022-09-19T22:51:54;11.20;99.90
10089;DHT22;51898;49.864;8.550;2022-09-19T22:54:56;11.10;99.90
10089;DHT22;51898;49.864;8.550;2022-09-19T22:57:57;11.10;99.90
10089;DHT22;51898;49.864;8.550;2022-09-19T23:01:04;11.10;99.90
10089;DHT22;51898;49.864;8.550;2022-09-19T23:04:07;11.00;99.90
10089;DHT22;51898;49.864;8.550;2022-09-19T23:07:09;11.00;99.90
10089;DHT22;51898;49.864;8.550;2022-09-19T23:10:11;11.00;99.90
10089;DHT22;51898;49.864;8.550;2022-09-19T23:13:13;11.00;99.90
10089;DHT22;51898;49.864;8.550;2022-09-19T23:16:41;11.00;99.90
10089;DHT22;51898;49.864;8.550;2022-09-19T23:19:43;11.00;99.90
10089;DHT22;51898;49.864;8.550;2022-09-19T23:22:44;11.00;99.90
10089;DHT22;51898;49.864;8.550;2022-09-19T23:25:46;11.00;99.90
10089;DHT22;51898;49.864;8.550;2022-09-19T23:28:48;11.00;99.90
10089;DHT22;51898;49.864;8.550;2022-09-19T23:31:50;11.00;99.90
10089;DHT22;51898;49.864;8.550;2022-09-19T23:34:52;11.00;99.90
10089;DHT22;51898;49.864;8.550;2022-09-19T23:37:54;11.00;99.90
10089;DHT22;51898;49.864;8.550;2022-09-19T23:41:03;10.90;99.90
10089;DHT22;51898;49.864;8.550;2022-09-19T23:44:05;10.90;99.90
10089;DHT22;51898;49.864;8.550;2022-09-19T23:47:07;11.00;99.90
10089;DHT22;51898;49.864;8.550;2022-09-19T23:50:09;10.90;99.90
10089;DHT22;51898;49.864;8.550;2022-09-19T23:53:10;10.90;99.90
10089;DHT22;51898;49.864;8.550;2022-09-19T23:56:12;11.00;99.90
10089;DHT22;51898;49.864;8.550;2022-09-19T23:59:14;10.90;99.90
